Station Historical Data
Daily Summary for January 12, 2018 Units:  Metric    English   Both
« Previous Day
Next Day »
Daily Weekly Monthly Yearly Custom
  High: Low: Average:
Temperature: 6.7 °C 3.1 °C 4.6 °C
Dew Point: 5.4 °C 2.2 °C 3.7 °C
Humidity: 96 % 91 % 94 %
Wind Speed: 9.0 km/h 0.0 km/h 0.4 km/h
Wind Gust: 9.0 km/h - -
Wind:- - WSW
Pressure: 1029.0 hPa -3386.0 hPa -
Precipitation: 0.0 mm    
Historical Graphs
 
 
Tabular Data for January 12, 2018
Time Temperature Dew Point Pressure Wind Wind Speed Wind Gust Humidity Rainfall Rate (Hourly) solar Conditions
00:04 4.2 °C 3.2 °C 1021.9 hPa Calm     93 % 0.0 mm meteobridge W/m2
00:10 4.1 °C 3.1 °C 1021.9 hPa Calm     93 % 0.0 mm meteobridge W/m2
00:16 3.9 °C 2.9 °C 1021.9 hPa Calm     93 % 0.0 mm meteobridge W/m2
00:24 3.9 °C 2.9 °C 1021.9 hPa Calm     93 % 0.0 mm meteobridge W/m2
00:30 3.8 °C 2.8 °C 1021.9 hPa Calm     93 % 0.0 mm meteobridge W/m2
00:36 3.9 °C 3.0 °C 1021.9 hPa Calm     94 % 0.0 mm meteobridge W/m2
00:42 3.9 °C 3.0 °C 1021.9 hPa Calm     94 % 0.0 mm meteobridge W/m2
00:54 4.0 °C 3.1 °C 1021.9 hPa Calm     94 % 0.0 mm meteobridge W/m2
01:09 4.1 °C 3.2 °C -3386.0 hPa Calm     94 % 0.0 mm meteobridge W/m2
01:16 4.1 °C 3.2 °C 1021.9 hPa Calm     94 % 0.0 mm meteobridge W/m2
01:22 4.1 °C 3.2 °C 1021.9 hPa Calm     94 % 0.0 mm meteobridge W/m2
01:28 4.3 °C 3.3 °C 1021.9 hPa Calm     93 % 0.0 mm meteobridge W/m2
01:34 4.3 °C 3.3 °C 1021.9 hPa Calm     93 % 0.0 mm meteobridge W/m2
01:40 4.3 °C 3.3 °C 1021.9 hPa Calm     93 % 0.0 mm meteobridge W/m2
01:48 4.3 °C 3.3 °C 1021.9 hPa Calm     93 % 0.0 mm meteobridge W/m2
01:54 4.4 °C 3.4 °C 1021.9 hPa Calm     93 % 0.0 mm meteobridge W/m2
02:01 4.6 °C 3.6 °C 1021.9 hPa Calm     93 % 0.0 mm meteobridge W/m2
02:08 4.6 °C 3.6 °C 1021.9 hPa Calm     93 % 0.0 mm meteobridge W/m2
02:15 4.6 °C 3.6 °C 1021.9 hPa Calm     93 % 0.0 mm meteobridge W/m2
02:21 4.3 °C 3.3 °C 1021.9 hPa Calm     93 % 0.0 mm meteobridge W/m2
02:27 4.1 °C 3.1 °C 1021.9 hPa Calm     93 % 0.0 mm meteobridge W/m2
02:33 4.0 °C 3.0 °C 1021.9 hPa Calm     93 % 0.0 mm meteobridge W/m2
02:39 3.9 °C 3.0 °C 1021.9 hPa Calm     94 % 0.0 mm meteobridge W/m2
02:45 3.8 °C 2.9 °C 1021.9 hPa Calm     94 % 0.0 mm meteobridge W/m2
02:51 4.0 °C 3.3 °C 1022.9 hPa Calm     95 % 0.0 mm meteobridge W/m2
02:57 4.1 °C 3.4 °C 1022.9 hPa Calm     95 % 0.0 mm meteobridge W/m2
03:03 4.2 °C 3.5 °C 1022.9 hPa Calm     95 % 0.0 mm meteobridge W/m2
03:11 4.3 °C 3.6 °C 1022.9 hPa Calm     95 % 0.0 mm meteobridge W/m2
03:29 4.1 °C 3.4 °C 1022.9 hPa Calm     95 % 0.0 mm meteobridge W/m2
03:35 4.3 °C 3.6 °C 1022.9 hPa Calm     95 % 0.0 mm meteobridge W/m2
03:41 4.1 °C 3.4 °C 1022.9 hPa Calm     95 % 0.0 mm meteobridge W/m2
03:49 4.2 °C 3.5 °C 1022.9 hPa Calm     95 % 0.0 mm meteobridge W/m2
03:55 4.3 °C 3.6 °C 1022.9 hPa Calm     95 % 0.0 mm meteobridge W/m2
04:01 4.2 °C 3.5 °C 1022.9 hPa Calm     95 % 0.0 mm meteobridge W/m2
04:07 4.3 °C 3.6 °C 1022.9 hPa Calm     95 % 0.0 mm meteobridge W/m2
04:13 4.2 °C 3.5 °C 1022.9 hPa Calm     95 % 0.0 mm meteobridge W/m2
04:19 4.2 °C 3.5 °C 1022.9 hPa Calm     95 % 0.0 mm meteobridge W/m2
04:25 4.3 °C 3.6 °C 1022.9 hPa Calm     95 % 0.0 mm meteobridge W/m2
04:31 4.2 °C 3.5 °C 1022.9 hPa Calm     95 % 0.0 mm meteobridge W/m2
04:41 4.2 °C 3.5 °C 1022.9 hPa Calm     95 % 0.0 mm meteobridge W/m2
04:43 4.1 °C 3.4 °C 1022.9 hPa Calm     95 % 0.0 mm meteobridge W/m2
04:49 4.2 °C 3.5 °C 1022.9 hPa Calm     95 % 0.0 mm meteobridge W/m2
04:55 4.1 °C 3.4 °C 1022.9 hPa Calm     95 % 0.0 mm meteobridge W/m2
05:01 4.1 °C 3.4 °C 1022.9 hPa Calm     95 % 0.0 mm meteobridge W/m2
05:13 4.1 °C 3.4 °C 1022.9 hPa Calm     95 % 0.0 mm meteobridge W/m2
05:19 4.0 °C 3.3 °C 1022.9 hPa Calm     95 % 0.0 mm meteobridge W/m2
05:25 4.0 °C 3.3 °C 1022.9 hPa Calm     95 % 0.0 mm meteobridge W/m2
05:31 4.0 °C 3.3 °C 1022.9 hPa Calm     95 % 0.0 mm meteobridge W/m2
05:37 3.9 °C 3.2 °C 1022.9 hPa Calm     95 % 0.0 mm meteobridge W/m2
05:43 4.0 °C 3.3 °C 1022.9 hPa Calm     95 % 0.0 mm meteobridge W/m2
05:49 4.0 °C 3.3 °C 1022.9 hPa Calm     95 % 0.0 mm meteobridge W/m2
05:55 4.0 °C 3.3 °C 1022.9 hPa Calm   4.0 km/h 95 % 0.0 mm meteobridge W/m2
06:01 4.0 °C 3.3 °C 1022.9 hPa Calm     95 % 0.0 mm meteobridge W/m2
06:08 4.0 °C 3.3 °C 1022.9 hPa Calm     95 % 0.0 mm meteobridge W/m2
06:14 3.9 °C 3.2 °C 1022.9 hPa Calm     95 % 0.0 mm meteobridge W/m2
06:21 3.9 °C 3.2 °C 1022.9 hPa Calm     95 % 0.0 mm meteobridge W/m2
06:33 3.9 °C 3.2 °C 1022.9 hPa Calm     95 % 0.0 mm meteobridge W/m2
06:40 3.9 °C 3.2 °C 1022.9 hPa Calm     95 % 0.0 mm meteobridge W/m2
06:46 3.7 °C 3.0 °C 1022.9 hPa Calm     95 % 0.0 mm meteobridge W/m2
06:53 3.7 °C 3.1 °C 1022.9 hPa Calm     96 % 0.0 mm meteobridge W/m2
06:59 3.8 °C 3.2 °C 1022.9 hPa Calm     96 % 0.0 mm meteobridge W/m2
07:05 4.0 °C 3.4 °C 1022.9 hPa Calm     96 % 0.0 mm meteobridge W/m2
07:12 3.9 °C 3.3 °C 1022.9 hPa Calm     96 % 0.0 mm meteobridge W/m2
07:19 4.1 °C 3.5 °C 1023.9 hPa Calm     96 % 0.0 mm meteobridge W/m2
07:31 4.3 °C 3.6 °C 1023.9 hPa Calm     95 % 0.0 mm meteobridge W/m2
07:36 4.3 °C 3.6 °C 1023.9 hPa Calm   -1607.4 km/h 95 % 0.0 mm meteobridge W/m2
07:44 4.3 °C 3.6 °C 1023.9 hPa Calm   -1607.4 km/h 95 % 0.0 mm meteobridge W/m2
07:57 4.3 °C 3.6 °C 1023.9 hPa Calm     95 % 0.0 mm meteobridge W/m2
08:06 4.3 °C 3.6 °C 1023.9 hPa Calm     95 % 0.0 mm meteobridge W/m2
08:12 4.3 °C 3.6 °C 1023.9 hPa Calm     95 % 0.0 mm meteobridge W/m2
08:18 4.3 °C 3.6 °C 1023.9 hPa Calm     95 % 0.0 mm meteobridge W/m2
08:25 4.3 °C 3.6 °C 1023.9 hPa Calm     95 % 0.0 mm meteobridge W/m2
08:31 4.3 °C 3.6 °C 1023.9 hPa Calm     95 % 0.0 mm meteobridge W/m2
08:42 4.3 °C 3.6 °C 1023.9 hPa Calm     95 % 0.0 mm meteobridge W/m2
08:49 4.4 °C 3.7 °C 1023.9 hPa Calm     95 % 0.0 mm meteobridge W/m2
08:57 4.5 °C 3.8 °C 1023.9 hPa Calm     95 % 0.0 mm meteobridge W/m2
09:04 4.6 °C 3.9 °C 1023.9 hPa East 2.1 km/h 2.1 km/h 95 % 0.0 mm meteobridge W/m2
09:11 4.5 °C 3.8 °C 1023.9 hPa Calm     95 % 0.0 mm meteobridge W/m2
09:19 4.7 °C 4.0 °C 1024.9 hPa Calm     95 % 0.0 mm meteobridge W/m2
09:25 4.8 °C 4.1 °C 1024.9 hPa Calm     95 % 0.0 mm meteobridge W/m2
09:31 4.7 °C 3.8 °C 1024.9 hPa Calm     94 % 0.0 mm meteobridge W/m2
09:42 4.7 °C 3.8 °C 1024.9 hPa Calm     94 % 0.0 mm meteobridge W/m2
09:48 4.6 °C 3.7 °C 1024.9 hPa Calm     94 % 0.0 mm meteobridge W/m2
09:55 4.6 °C 3.7 °C 1024.9 hPa Calm     94 % 0.0 mm meteobridge W/m2
10:01 4.4 °C 3.5 °C 1024.9 hPa Calm     94 % 0.0 mm meteobridge W/m2
10:08 4.4 °C 3.5 °C 1024.9 hPa Calm     94 % 0.0 mm meteobridge W/m2
10:14 4.5 °C 3.8 °C 1024.9 hPa Calm     95 % 0.0 mm meteobridge W/m2
10:21 4.5 °C 3.8 °C 1024.9 hPa Calm   -1607.4 km/h 95 % 0.0 mm meteobridge W/m2
10:46 4.6 °C 3.9 °C 1024.9 hPa Calm     95 % 0.0 mm meteobridge W/m2
10:53 4.8 °C 4.1 °C 1024.9 hPa Calm     95 % 0.0 mm meteobridge W/m2
10:59 4.6 °C 3.9 °C 1024.9 hPa Calm     95 % 0.0 mm meteobridge W/m2
11:08 5.1 °C 4.4 °C 1024.9 hPa Calm     95 % 0.0 mm meteobridge W/m2
11:14 4.9 °C 4.2 °C 1024.9 hPa Calm     95 % 0.0 mm meteobridge W/m2
11:23 5.0 °C 4.3 °C 1026.0 hPa Calm     95 % 0.0 mm meteobridge W/m2
11:29 5.3 °C 4.6 °C 1026.0 hPa Calm     95 % 0.0 mm meteobridge W/m2
11:36 5.3 °C 4.6 °C 1024.9 hPa Calm     95 % 0.0 mm meteobridge W/m2
11:42 5.3 °C 4.4 °C 1024.9 hPa Calm     94 % 0.0 mm meteobridge W/m2
11:48 5.5 °C 4.8 °C 1024.9 hPa Calm     95 % 0.0 mm meteobridge W/m2
11:57 5.7 °C 4.8 °C 1024.9 hPa Calm     94 % 0.0 mm meteobridge W/m2
12:03 6.0 °C 5.1 °C 1024.9 hPa Calm     94 % 0.0 mm meteobridge W/m2
12:10 5.7 °C 4.8 °C 1024.9 hPa Calm     94 % 0.0 mm meteobridge W/m2
12:16 6.0 °C 5.1 °C 1024.9 hPa Calm     94 % 0.0 mm meteobridge W/m2
12:21 6.0 °C 5.1 °C 1024.9 hPa Calm     94 % 0.0 mm meteobridge W/m2
12:27 6.2 °C 5.3 °C 1024.9 hPa Calm     94 % 0.0 mm meteobridge W/m2
12:33 6.4 °C 5.4 °C 1024.9 hPa Calm     93 % 0.0 mm meteobridge W/m2
12:46 6.5 °C 5.3 °C 1024.9 hPa Calm     92 % 0.0 mm meteobridge W/m2
12:59 6.6 °C 5.2 °C 1024.9 hPa Calm     91 % 0.0 mm meteobridge W/m2
13:05 6.5 °C 5.1 °C 1024.9 hPa Calm     91 % 0.0 mm meteobridge W/m2
13:12 6.7 °C 5.3 °C 1024.9 hPa Calm     91 % 0.0 mm meteobridge W/m2
13:18 6.5 °C 5.1 °C 1024.9 hPa Calm     91 % 0.0 mm meteobridge W/m2
13:25 6.2 °C 4.8 °C 1024.9 hPa Calm     91 % 0.0 mm meteobridge W/m2
13:31 6.1 °C 4.7 °C 1024.9 hPa Calm     91 % 0.0 mm meteobridge W/m2
13:36 6.1 °C 4.7 °C 1024.9 hPa Calm     91 % 0.0 mm meteobridge W/m2
13:42 6.1 °C 4.7 °C 1024.9 hPa Calm     91 % 0.0 mm meteobridge W/m2
13:55 6.0 °C 4.8 °C 1024.9 hPa Calm   2.1 km/h 92 % 0.0 mm meteobridge W/m2
14:01 5.8 °C 4.6 °C 1026.0 hPa Calm     92 % 0.0 mm meteobridge W/m2
14:08 5.7 °C 4.7 °C 1026.0 hPa Calm     93 % 0.0 mm meteobridge W/m2
14:14 5.7 °C 4.7 °C 1026.0 hPa Calm     93 % 0.0 mm meteobridge W/m2
14:21 5.7 °C 4.7 °C 1024.9 hPa ESE 1.8 km/h 1.8 km/h 93 % 0.0 mm meteobridge W/m2
14:27 5.8 °C 4.8 °C 1024.9 hPa Calm     93 % 0.0 mm meteobridge W/m2
14:35 5.7 °C 4.7 °C 1026.0 hPa Calm     93 % 0.0 mm meteobridge W/m2
14:42 5.7 °C 4.7 °C 1026.0 hPa Calm     93 % 0.0 mm meteobridge W/m2
14:51 5.5 °C 4.6 °C 1026.0 hPa Calm     94 % 0.0 mm meteobridge W/m2
15:02 5.4 °C 4.5 °C 1026.0 hPa Calm     94 % 0.0 mm meteobridge W/m2
15:10 5.2 °C 4.3 °C -3386.0 hPa Calm     94 % 0.0 mm meteobridge W/m2
15:16 5.2 °C 4.5 °C 1026.0 hPa Calm     95 % 0.0 mm meteobridge W/m2
15:22 5.2 °C 4.5 °C 1026.0 hPa Calm     95 % 0.0 mm meteobridge W/m2
15:28 5.2 °C 4.5 °C 1026.0 hPa Calm     95 % 0.0 mm meteobridge W/m2
15:34 5.2 °C 4.5 °C 1026.0 hPa Calm     95 % 0.0 mm meteobridge W/m2
15:40 5.3 °C 4.4 °C 1026.0 hPa Calm     94 % 0.0 mm meteobridge W/m2
15:46 5.3 °C 4.4 °C 1026.0 hPa Calm     94 % 0.0 mm meteobridge W/m2
15:52 5.3 °C 4.4 °C 1026.0 hPa Calm     94 % 0.0 mm meteobridge W/m2
15:58 5.1 °C 4.4 °C 1026.0 hPa Calm     95 % 0.0 mm meteobridge W/m2
16:04 5.3 °C 4.6 °C 1026.0 hPa Calm     95 % 0.0 mm meteobridge W/m2
16:10 5.3 °C 4.4 °C 1026.0 hPa Calm     94 % 0.0 mm meteobridge W/m2
16:16 5.3 °C 4.6 °C 1026.0 hPa Calm     95 % 0.0 mm meteobridge W/m2
16:22 5.3 °C 4.4 °C 1027.0 hPa Calm     94 % 0.0 mm meteobridge W/m2
16:28 5.3 °C 4.4 °C 1027.0 hPa Calm     94 % 0.0 mm meteobridge W/m2
16:34 5.4 °C 4.5 °C 1027.0 hPa Calm     94 % 0.0 mm meteobridge W/m2
16:40 5.5 °C 4.6 °C 1027.0 hPa Calm     94 % 0.0 mm meteobridge W/m2
16:46 5.5 °C 4.6 °C 1027.0 hPa Calm     94 % 0.0 mm meteobridge W/m2
16:58 5.4 °C 4.5 °C 1027.0 hPa Calm     94 % 0.0 mm meteobridge W/m2
17:04 5.4 °C 4.5 °C 1027.0 hPa Calm     94 % 0.0 mm meteobridge W/m2
17:10 5.4 °C 4.5 °C 1027.0 hPa Calm     94 % 0.0 mm meteobridge W/m2
17:16 5.4 °C 4.5 °C 1027.0 hPa Calm     94 % 0.0 mm meteobridge W/m2
17:22 5.4 °C 4.5 °C 1027.0 hPa Calm     94 % 0.0 mm meteobridge W/m2
17:28 5.4 °C 4.5 °C 1027.0 hPa Calm     94 % 0.0 mm meteobridge W/m2
17:34 5.4 °C 4.7 °C 1027.0 hPa Calm     95 % 0.0 mm meteobridge W/m2
17:40 5.4 °C 4.7 °C 1027.0 hPa Calm     95 % 0.0 mm meteobridge W/m2
17:47 5.4 °C 4.7 °C 1027.0 hPa Calm     95 % 0.0 mm meteobridge W/m2
17:53 5.4 °C 4.7 °C 1027.0 hPa Calm     95 % 0.0 mm meteobridge W/m2
18:03 5.3 °C 4.6 °C 1027.0 hPa Calm     95 % 0.0 mm meteobridge W/m2
18:13 5.2 °C 4.5 °C 1027.0 hPa Calm     95 % 0.0 mm meteobridge W/m2
18:19 5.1 °C 4.4 °C 1027.0 hPa Calm     95 % 0.0 mm meteobridge W/m2
18:31 5.2 °C 4.5 °C 1027.0 hPa Calm     95 % 0.0 mm meteobridge W/m2
18:37 5.2 °C 4.5 °C 1027.0 hPa Calm     95 % 0.0 mm meteobridge W/m2
18:43 5.1 °C 4.4 °C 1027.0 hPa Calm     95 % 0.0 mm meteobridge W/m2
18:49 5.2 °C 4.5 °C 1027.0 hPa Calm     95 % 0.0 mm meteobridge W/m2
18:55 5.2 °C 4.5 °C 1027.0 hPa Calm     95 % 0.0 mm meteobridge W/m2
19:01 4.9 °C 4.2 °C 1027.0 hPa WSW 5.0 km/h 5.8 km/h 95 % 0.0 mm meteobridge W/m2
19:07 4.7 °C 3.8 °C 1027.0 hPa Calm   4.3 km/h 94 % 0.0 mm meteobridge W/m2
19:13 4.5 °C 3.6 °C 1027.0 hPa WSW 4.0 km/h 5.5 km/h 94 % 0.0 mm meteobridge W/m2
19:21 4.4 °C 3.5 °C 1027.0 hPa West 3.2 km/h 4.7 km/h 94 % 0.0 mm meteobridge W/m2
19:27 4.4 °C 3.4 °C 1027.0 hPa Calm   4.7 km/h 93 % 0.0 mm meteobridge W/m2
19:33 4.3 °C 3.3 °C 1027.0 hPa SW 6.4 km/h 6.4 km/h 93 % 0.0 mm meteobridge W/m2
19:45 4.1 °C 3.1 °C 1027.0 hPa Calm   3.5 km/h 93 % 0.0 mm meteobridge W/m2
19:55 4.2 °C 3.2 °C 1027.0 hPa Calm   4.3 km/h 93 % 0.0 mm meteobridge W/m2
20:01 4.1 °C 2.9 °C 1027.0 hPa WSW 5.5 km/h 5.8 km/h 92 % 0.0 mm meteobridge W/m2
20:07 4.1 °C 2.9 °C 1027.0 hPa Calm     92 % 0.0 mm meteobridge W/m2
20:19 4.0 °C 2.8 °C 1027.0 hPa WSW 4.7 km/h 4.7 km/h 92 % 0.0 mm meteobridge W/m2
20:25 3.9 °C 2.7 °C 1027.0 hPa Calm     92 % 0.0 mm meteobridge W/m2
20:37 3.6 °C 2.4 °C 1028.0 hPa West 4.3 km/h 4.3 km/h 92 % 0.0 mm meteobridge W/m2
20:43 3.6 °C 2.4 °C 1028.0 hPa Calm     92 % 0.0 mm meteobridge W/m2
20:49 3.6 °C 2.6 °C 1028.0 hPa Calm     93 % 0.0 mm meteobridge W/m2
20:55 3.5 °C 2.5 °C 1028.0 hPa Calm     93 % 0.0 mm meteobridge W/m2
21:02 3.7 °C 2.8 °C 1028.0 hPa Calm     94 % 0.0 mm meteobridge W/m2
21:13 3.4 °C 2.4 °C 1028.0 hPa West 3.2 km/h 3.2 km/h 93 % 0.0 mm meteobridge W/m2
21:25 3.4 °C 2.4 °C 1028.0 hPa Calm     93 % 0.0 mm meteobridge W/m2
21:31 3.4 °C 2.4 °C 1028.0 hPa Calm     93 % 0.0 mm meteobridge W/m2
21:43 3.3 °C 2.3 °C 1028.0 hPa Calm     93 % 0.0 mm meteobridge W/m2
21:49 3.3 °C 2.3 °C 1028.0 hPa Calm   1.4 km/h 93 % 0.0 mm meteobridge W/m2
21:55 3.4 °C 2.5 °C 1028.0 hPa WNW 4.3 km/h 4.3 km/h 94 % 0.0 mm meteobridge W/m2
22:01 3.3 °C 2.3 °C 1028.0 hPa Calm     93 % 0.0 mm meteobridge W/m2
22:13 3.3 °C 2.3 °C 1028.0 hPa WSW 1.4 km/h 1.4 km/h 93 % 0.0 mm meteobridge W/m2
22:19 3.3 °C 2.3 °C 1028.0 hPa WSW 5.8 km/h 5.8 km/h 93 % 0.0 mm meteobridge W/m2
22:25 3.2 °C 2.3 °C 1028.0 hPa West 5.5 km/h 5.5 km/h 94 % 0.0 mm meteobridge W/m2
22:37 3.2 °C 2.2 °C 1028.0 hPa Calm     93 % 0.0 mm meteobridge W/m2
22:43 3.2 °C 2.2 °C 1028.0 hPa Calm   -1607.4 km/h 93 % 0.0 mm meteobridge W/m2
22:55 3.1 °C 2.2 °C 1029.0 hPa Calm   6.1 km/h 94 % 0.0 mm meteobridge W/m2
23:01 3.2 °C 2.3 °C 1029.0 hPa SW 9.0 km/h 9.0 km/h 94 % 0.0 mm meteobridge W/m2
23:07 3.1 °C 2.2 °C 1029.0 hPa Calm   1.4 km/h 94 % 0.0 mm meteobridge W/m2
23:13 3.2 °C 2.3 °C 1029.0 hPa Calm     94 % 0.0 mm meteobridge W/m2
23:19 3.1 °C 2.2 °C 1029.0 hPa Calm     94 % 0.0 mm meteobridge W/m2
23:25 3.3 °C 2.3 °C 1029.0 hPa WSW 1.4 km/h 4.3 km/h 93 % 0.0 mm meteobridge W/m2
23:37 3.2 °C 2.3 °C 1029.0 hPa WSW 4.7 km/h 4.7 km/h 94 % 0.0 mm meteobridge W/m2
23:43 3.1 °C 2.2 °C 1029.0 hPa Calm     94 % 0.0 mm meteobridge W/m2
23:49 3.2 °C 2.3 °C 1029.0 hPa Calm     94 % 0.0 mm meteobridge W/m2
23:55 3.1 °C 2.2 °C 1029.0 hPa Calm     94 % 0.0 mm meteobridge W/m2
Juneau County Weather
Compliments of Weather Underground - 2.25 mb